Wrigley Harbour mile 0 to Axe Point mile 91: Past 24 Hour Conditions

 

Stony Rapids Airport

12:00 PM CST 29 July 2014
This table is a summary of hourly weather conditions for the past 24 hours.
Date / Time
(CST)
Wind(knots) Conditions Visibility(km) Pressure(kPa) Air tempC) Relative humidity(%) Dew pointC) Humidex
29 July 2014
12:00 N 4 Sunny 16 102.0 28 34 11 30
11:00 NW 3 Haze 8 102.0 27 45 14 30
10:00 calm Haze 8 102.0 24 53 14 28
9:00 calm Sunny 11 102.1 21 65 15 25
8:00 W 3 Sunny 15 102.1 18 73 13 *
7:00 calm Sunny 11 102.1 15 85 12 *
6:00 ESE 3 Mist 6 102.1 11 95 10 *
5:00 ESE 2 Mist 6 102.1 10 90 8 *
4:00 E 2 Mist 10 102.0 11 94 10 *
3:00 SE 2 Mist 8 102.0 11 91 9 *
2:00 calm Clear 13 102.0 13 86 10 *
1:00 ESE 3 Clear 15 102.0 13 83 10 *
0:00 ENE 2 Clear 15 102.0 15 80 11 *
28 July 2014
23:00 E 2 Clear 16 101.9 16 75 12 *
22:00 W 3 Clear 16 101.9 19 68 14 *
21:00 WSW 4 Sunny 16 101.9 23 54 14 26
20:00 W 4 Sunny 11 101.9 27 41 13 29
19:00 W 4 Sunny 16 101.9 29 32 11 30
18:00 W 5 Sunny 16 101.9 29 28 9 30
17:00 WSW 6 Sunny 16 101.9 29 27 9 30
16:00 WNW 5 Mainly Sunny 16 102.0 30 27 9 30
15:00 SSW 6 Mainly Sunny 16 102.0 29 28 9 30
14:00 WSW 8 Mainly Sunny 16 102.0 29 29 9 30
13:00 W 4 Partly Cloudy 16 102.0 28 31 9 29
12:00 NW 3 Sunny 15 102.1 27 33 10 28
 
Map of Mackenzie - Mackenzie River marine weather areas Great Slave Lake - 45141 Great Slave Lake North Arm - 45150 Herschel Island Komakuk Beach Shingle Point Airport Aklavik Airport Cape Parry Airport Fort Good Hope Airport Tulita Airport Fort Providence Fort Reliance Fort Resolution Airport Fort Simpson Airport Hay River/Merlyn Carter Airport Inner Whaleback Rocks Inuvik Airport Keats Point Norman Wells Airport Paulatuk Airport Pelly Island Tuktoyaktuk Airport Wrigley Airport Yellowknife Airport Kugluktuk Airport Hat Island Cambridge Bay Airport Cape Peel West Stefansson Island Ulukhaktok Airport Sachs Harbour Airport Thomsen River Egg Island Fort Chipewyan Airport Stony Rapids Airport Liverpool Bay Little Chicago Lutselke Airport Storm Hills Croker River Prairie River Uranium City Bathurst Inlet Gateshead Island
Legend: buoyBuoy land stationLand Station